Cambridge, MN (55008)

8:28 AM CDT on April 29, 2017 (GMT -0500)
MD6352 | | Change Station

Elev 957 ft 45.56 °N, 93.21 °W | Updated 21 days ago

Clear
Clear
53.0 °F
Feels Like 53.0 °F
N
3.0
Wind Variable Wind from South

Today
High -- | Low -- °F
--% Chance of Precip.
Yesterday
High -- | Low -- °F
Precip. -- in
Pressure 30.31 in
Visibility 10.0 miles
Clouds Clear
Dew Point 23.0 °F
Humidity 31%
Rainfall in
Snow Depth Not available.
6:03 AM 8:17 PM
Waxing Crescent, 13% visible
METAR KCBG 291315Z AUTO 10004KT 10SM CLR 06/M02 A3031 RMK AO2
Pressure 30.31 in
Visibility 10.0 miles
Clouds Clear
Dew Point 23.0 °F
Humidity 31%
Rainfall in
Snow Depth Not available.
6:03 AM 8:17 PM
Waxing Crescent, 13% visible
METAR KCBG 291315Z AUTO 10004KT 10SM CLR 06/M02 A3031 RMK AO2

Get Severe Weather Alerts

Thanks for signing up!

Be on the lookout for a verification email in your inbox.

You'll start receiving the daily forecast at 8 AM.

×

10-Day Weather Forecast

Almanac

Astronomy

Apr. 29, 2017 Rise Set
Actual Time
Civil Twilight
Nautical Twilight
Astronomical Twilight
Moon
Length of Visible Light
Length of Day
Tomorrow will be .
, % of the Moon is Illuminated

Today's Extremes

State Highs State Lows

Community

WunderPhotos

WunderBlog® & News

Nearby

Air Quality

  Air Quality AQ Index Pollutant
Not available.

Snow Depth

Station Depth Elevation

Earthquake Activity

City Distance Mag. Time & Date
Minimum magnitude displayed is 2.5.

Coastal Water Temperatures

Place Temperature

Stations

Nearby Weather Stations

Station Location Temp. Windchill Dew Point Humidity Wind Precip. Elev Updated Type
                   

Watches & Warnings

There are currently no watches in effect.